sensor_id;sensor_type;location;lat;lon;timestamp;P1;durP1;ratioP1;P2;durP2;ratioP2
73575;SDS011;61859;49.204;8.140;2023-11-22T00:02:10;3.07;;;2.67;;
73575;SDS011;61859;49.204;8.140;2023-11-22T00:04:36;2.97;;;2.50;;
73575;SDS011;61859;49.204;8.140;2023-11-22T00:07:02;2.50;;;2.23;;
73575;SDS011;61859;49.204;8.140;2023-11-22T00:09:27;2.33;;;2.10;;
73575;SDS011;61859;49.204;8.140;2023-11-22T00:11:53;4.37;;;2.67;;
73575;SDS011;61859;49.204;8.140;2023-11-22T00:14:18;3.47;;;2.37;;
73575;SDS011;61859;49.204;8.140;2023-11-22T00:16:44;4.83;;;2.77;;
73575;SDS011;61859;49.204;8.140;2023-11-22T00:19:09;2.30;;;2.00;;
73575;SDS011;61859;49.204;8.140;2023-11-22T00:21:35;3.40;;;2.43;;
73575;SDS011;61859;49.204;8.140;2023-11-22T00:24:00;3.50;;;2.30;;
73575;SDS011;61859;49.204;8.140;2023-11-22T00:26:26;3.23;;;2.13;;
73575;SDS011;61859;49.204;8.140;2023-11-22T00:28:51;3.07;;;1.90;;
73575;SDS011;61859;49.204;8.140;2023-11-22T00:31:19;5.67;;;2.73;;
73575;SDS011;61859;49.204;8.140;2023-11-22T00:33:44;2.43;;;2.00;;
73575;SDS011;61859;49.204;8.140;2023-11-22T00:36:10;2.30;;;2.10;;
73575;SDS011;61859;49.204;8.140;2023-11-22T00:38:35;2.40;;;2.20;;
73575;SDS011;61859;49.204;8.140;2023-11-22T00:41:02;2.07;;;1.90;;
73575;SDS011;61859;49.204;8.140;2023-11-22T00:43:28;2.50;;;2.17;;
73575;SDS011;61859;49.204;8.140;2023-11-22T00:45:53;2.47;;;2.20;;
73575;SDS011;61859;49.204;8.140;2023-11-22T00:48:19;3.07;;;2.00;;
73575;SDS011;61859;49.204;8.140;2023-11-22T00:50:44;2.17;;;1.97;;
73575;SDS011;61859;49.204;8.140;2023-11-22T00:53:10;2.93;;;2.23;;
73575;SDS011;61859;49.204;8.140;2023-11-22T00:55:35;2.53;;;2.10;;
73575;SDS011;61859;49.204;8.140;2023-11-22T00:58:01;3.10;;;2.20;;
73575;SDS011;61859;49.204;8.140;2023-11-22T01:00:29;2.93;;;2.40;;
73575;SDS011;61859;49.204;8.140;2023-11-22T01:02:55;3.80;;;2.37;;
73575;SDS011;61859;49.204;8.140;2023-11-22T01:05:21;2.80;;;2.50;;
73575;SDS011;61859;49.204;8.140;2023-11-22T01:07:47;3.60;;;2.37;;
73575;SDS011;61859;49.204;8.140;2023-11-22T01:10:13;4.00;;;2.37;;
73575;SDS011;61859;49.204;8.140;2023-11-22T01:12:39;3.23;;;2.10;;
73575;SDS011;61859;49.204;8.140;2023-11-22T01:15:04;3.77;;;2.50;;
73575;SDS011;61859;49.204;8.140;2023-11-22T01:17:31;2.90;;;2.23;;
73575;SDS011;61859;49.204;8.140;2023-11-22T01:19:56;3.13;;;2.50;;
73575;SDS011;61859;49.204;8.140;2023-11-22T01:22:23;3.93;;;2.40;;
73575;SDS011;61859;49.204;8.140;2023-11-22T01:24:49;3.77;;;2.60;;
73575;SDS011;61859;49.204;8.140;2023-11-22T01:27:14;2.93;;;2.20;;
73575;SDS011;61859;49.204;8.140;2023-11-22T01:29:40;3.17;;;2.50;;
73575;SDS011;61859;49.204;8.140;2023-11-22T01:32:06;2.87;;;2.53;;
73575;SDS011;61859;49.204;8.140;2023-11-22T01:34:33;3.63;;;2.10;;
73575;SDS011;61859;49.204;8.140;2023-11-22T01:36:59;2.57;;;2.20;;
73575;SDS011;61859;49.204;8.140;2023-11-22T01:39:25;2.57;;;2.37;;
73575;SDS011;61859;49.204;8.140;2023-11-22T01:41:51;5.17;;;2.37;;
73575;SDS011;61859;49.204;8.140;2023-11-22T01:44:17;2.73;;;2.23;;
73575;SDS011;61859;49.204;8.140;2023-11-22T01:46:46;3.23;;;2.73;;
73575;SDS011;61859;49.204;8.140;2023-11-22T01:49:11;3.03;;;2.73;;
73575;SDS011;61859;49.204;8.140;2023-11-22T01:51:38;4.20;;;2.67;;
73575;SDS011;61859;49.204;8.140;2023-11-22T01:54:05;3.40;;;2.67;;
73575;SDS011;61859;49.204;8.140;2023-11-22T01:56:33;3.60;;;2.33;;
73575;SDS011;61859;49.204;8.140;2023-11-22T01:59:00;2.87;;;2.17;;
73575;SDS011;61859;49.204;8.140;2023-11-22T02:01:26;2.33;;;2.13;;
73575;SDS011;61859;49.204;8.140;2023-11-22T02:03:52;3.07;;;1.93;;
73575;SDS011;61859;49.204;8.140;2023-11-22T02:06:18;2.00;;;1.80;;
73575;SDS011;61859;49.204;8.140;2023-11-22T02:08:46;2.73;;;2.07;;
73575;SDS011;61859;49.204;8.140;2023-11-22T02:11:12;2.90;;;1.70;;
73575;SDS011;61859;49.204;8.140;2023-11-22T02:13:38;2.07;;;1.87;;
73575;SDS011;61859;49.204;8.140;2023-11-22T02:16:03;2.70;;;1.80;;
73575;SDS011;61859;49.204;8.140;2023-11-22T02:18:29;2.10;;;1.80;;
73575;SDS011;61859;49.204;8.140;2023-11-22T02:20:56;1.90;;;1.60;;
73575;SDS011;61859;49.204;8.140;2023-11-22T02:23:21;2.20;;;1.70;;
73575;SDS011;61859;49.204;8.140;2023-11-22T02:25:47;1.73;;;1.60;;
73575;SDS011;61859;49.204;8.140;2023-11-22T02:28:13;2.33;;;1.70;;
73575;SDS011;61859;49.204;8.140;2023-11-22T02:30:39;2.00;;;1.80;;
73575;SDS011;61859;49.204;8.140;2023-11-22T02:33:05;3.07;;;1.43;;
73575;SDS011;61859;49.204;8.140;2023-11-22T02:35:31;2.07;;;1.70;;
73575;SDS011;61859;49.204;8.140;2023-11-22T02:37:57;1.80;;;1.57;;
73575;SDS011;61859;49.204;8.140;2023-11-22T02:40:24;1.13;;;1.13;;
73575;SDS011;61859;49.204;8.140;2023-11-22T02:42:50;1.63;;;1.43;;
73575;SDS011;61859;49.204;8.140;2023-11-22T02:45:18;1.47;;;1.20;;
73575;SDS011;61859;49.204;8.140;2023-11-22T02:47:50;1.70;;;1.03;;
73575;SDS011;61859;49.204;8.140;2023-11-22T02:50:17;2.20;;;1.70;;
73575;SDS011;61859;49.204;8.140;2023-11-22T02:52:43;1.80;;;1.33;;
73575;SDS011;61859;49.204;8.140;2023-11-22T02:55:09;1.50;;;1.40;;
73575;SDS011;61859;49.204;8.140;2023-11-22T02:57:35;2.63;;;1.60;;
73575;SDS011;61859;49.204;8.140;2023-11-22T03:00:02;2.90;;;1.50;;
73575;SDS011;61859;49.204;8.140;2023-11-22T03:02:29;2.00;;;1.40;;
73575;SDS011;61859;49.204;8.140;2023-11-22T03:04:55;1.80;;;1.50;;
73575;SDS011;61859;49.204;8.140;2023-11-22T03:07:20;2.70;;;1.53;;
73575;SDS011;61859;49.204;8.140;2023-11-22T03:09:46;1.77;;;1.23;;
73575;SDS011;61859;49.204;8.140;2023-11-22T03:12:11;4.10;;;1.40;;
73575;SDS011;61859;49.204;8.140;2023-11-22T03:14:38;2.27;;;1.53;;
73575;SDS011;61859;49.204;8.140;2023-11-22T03:17:04;1.97;;;1.77;;
73575;SDS011;61859;49.204;8.140;2023-11-22T03:19:30;1.77;;;1.67;;
73575;SDS011;61859;49.204;8.140;2023-11-22T03:21:55;4.07;;;1.80;;
73575;SDS011;61859;49.204;8.140;2023-11-22T03:24:21;1.70;;;1.60;;
73575;SDS011;61859;49.204;8.140;2023-11-22T03:26:47;1.77;;;1.67;;
73575;SDS011;61859;49.204;8.140;2023-11-22T03:29:14;2.53;;;2.33;;
73575;SDS011;61859;49.204;8.140;2023-11-22T03:31:41;4.87;;;2.30;;
73575;SDS011;61859;49.204;8.140;2023-11-22T03:34:07;4.10;;;2.47;;
73575;SDS011;61859;49.204;8.140;2023-11-22T03:36:32;2.73;;;2.27;;
73575;SDS011;61859;49.204;8.140;2023-11-22T03:38:58;3.27;;;2.40;;
73575;SDS011;61859;49.204;8.140;2023-11-22T03:41:24;3.90;;;3.00;;
73575;SDS011;61859;49.204;8.140;2023-11-22T03:43:49;3.80;;;2.80;;
73575;SDS011;61859;49.204;8.140;2023-11-22T03:46:15;4.03;;;3.07;;
73575;SDS011;61859;49.204;8.140;2023-11-22T03:48:40;4.00;;;3.13;;
73575;SDS011;61859;49.204;8.140;2023-11-22T03:51:06;3.17;;;2.77;;
73575;SDS011;61859;49.204;8.140;2023-11-22T03:53:31;4.93;;;3.30;;
73575;SDS011;61859;49.204;8.140;2023-11-22T03:55:57;4.37;;;2.97;;
73575;SDS011;61859;49.204;8.140;2023-11-22T03:58:23;3.63;;;2.80;;
73575;SDS011;61859;49.204;8.140;2023-11-22T04:00:49;4.90;;;3.10;;
73575;SDS011;61859;49.204;8.140;2023-11-22T04:03:17;4.10;;;3.17;;
73575;SDS011;61859;49.204;8.140;2023-11-22T04:05:43;4.73;;;3.57;;
73575;SDS011;61859;49.204;8.140;2023-11-22T04:08:09;3.70;;;3.27;;
73575;SDS011;61859;49.204;8.140;2023-11-22T04:10:35;3.73;;;3.03;;
73575;SDS011;61859;49.204;8.140;2023-11-22T04:13:00;3.20;;;2.90;;
73575;SDS011;61859;49.204;8.140;2023-11-22T04:15:26;5.40;;;3.13;;
73575;SDS011;61859;49.204;8.140;2023-11-22T04:17:51;3.63;;;2.90;;
73575;SDS011;61859;49.204;8.140;2023-11-22T04:20:19;3.57;;;2.70;;
73575;SDS011;61859;49.204;8.140;2023-11-22T04:22:45;3.30;;;2.87;;
73575;SDS011;61859;49.204;8.140;2023-11-22T04:25:10;3.93;;;2.67;;
73575;SDS011;61859;49.204;8.140;2023-11-22T04:27:39;2.90;;;2.60;;
73575;SDS011;61859;49.204;8.140;2023-11-22T04:30:06;4.60;;;2.97;;
73575;SDS011;61859;49.204;8.140;2023-11-22T04:32:39;3.47;;;2.80;;
73575;SDS011;61859;49.204;8.140;2023-11-22T04:35:06;2.87;;;2.53;;
73575;SDS011;61859;49.204;8.140;2023-11-22T04:37:32;5.47;;;2.90;;
73575;SDS011;61859;49.204;8.140;2023-11-22T04:39:58;3.13;;;2.40;;
73575;SDS011;61859;49.204;8.140;2023-11-22T04:42:23;3.73;;;2.87;;
73575;SDS011;61859;49.204;8.140;2023-11-22T04:44:49;7.50;;;3.17;;
73575;SDS011;61859;49.204;8.140;2023-11-22T04:47:15;3.60;;;3.13;;
73575;SDS011;61859;49.204;8.140;2023-11-22T04:49:40;4.47;;;3.23;;
73575;SDS011;61859;49.204;8.140;2023-11-22T04:52:06;3.03;;;2.63;;
73575;SDS011;61859;49.204;8.140;2023-11-22T04:54:31;4.43;;;3.30;;
73575;SDS011;61859;49.204;8.140;2023-11-22T04:56:58;4.33;;;2.83;;
73575;SDS011;61859;49.204;8.140;2023-11-22T04:59:23;3.43;;;2.63;;
73575;SDS011;61859;49.204;8.140;2023-11-22T05:01:49;3.77;;;2.70;;
73575;SDS011;61859;49.204;8.140;2023-11-22T05:04:14;3.83;;;2.63;;
73575;SDS011;61859;49.204;8.140;2023-11-22T05:06:40;4.40;;;3.03;;
73575;SDS011;61859;49.204;8.140;2023-11-22T05:09:06;4.17;;;3.00;;
73575;SDS011;61859;49.204;8.140;2023-11-22T05:11:31;3.60;;;2.73;;
73575;SDS011;61859;49.204;8.140;2023-11-22T05:13:57;3.53;;;2.83;;
73575;SDS011;61859;49.204;8.140;2023-11-22T05:16:23;3.50;;;2.70;;
73575;SDS011;61859;49.204;8.140;2023-11-22T05:18:49;4.00;;;2.87;;
73575;SDS011;61859;49.204;8.140;2023-11-22T05:21:15;4.37;;;2.87;;
73575;SDS011;61859;49.204;8.140;2023-11-22T05:23:40;3.77;;;2.80;;
73575;SDS011;61859;49.204;8.140;2023-11-22T05:26:06;3.80;;;3.10;;
73575;SDS011;61859;49.204;8.140;2023-11-22T05:28:31;4.83;;;2.80;;
73575;SDS011;61859;49.204;8.140;2023-11-22T05:30:58;4.93;;;3.10;;
73575;SDS011;61859;49.204;8.140;2023-11-22T05:33:24;7.30;;;3.27;;
73575;SDS011;61859;49.204;8.140;2023-11-22T05:35:49;3.47;;;3.17;;
73575;SDS011;61859;49.204;8.140;2023-11-22T05:38:15;5.30;;;3.43;;
73575;SDS011;61859;49.204;8.140;2023-11-22T05:40:41;4.75;;;3.80;;
73575;SDS011;61859;49.204;8.140;2023-11-22T05:43:08;4.20;;;3.27;;
73575;SDS011;61859;49.204;8.140;2023-11-22T05:45:34;3.53;;;2.97;;
73575;SDS011;61859;49.204;8.140;2023-11-22T05:48:00;5.50;;;3.63;;
73575;SDS011;61859;49.204;8.140;2023-11-22T05:50:26;6.23;;;3.27;;
73575;SDS011;61859;49.204;8.140;2023-11-22T05:52:52;3.90;;;3.17;;
73575;SDS011;61859;49.204;8.140;2023-11-22T05:55:17;5.43;;;3.27;;
73575;SDS011;61859;49.204;8.140;2023-11-22T05:57:43;4.63;;;3.30;;
73575;SDS011;61859;49.204;8.140;2023-11-22T06:00:09;6.17;;;3.13;;
73575;SDS011;61859;49.204;8.140;2023-11-22T06:02:35;4.33;;;3.60;;
73575;SDS011;61859;49.204;8.140;2023-11-22T06:05:04;4.67;;;3.53;;
73575;SDS011;61859;49.204;8.140;2023-11-22T06:07:30;4.90;;;3.20;;
73575;SDS011;61859;49.204;8.140;2023-11-22T06:09:56;4.10;;;3.13;;
73575;SDS011;61859;49.204;8.140;2023-11-22T06:12:22;5.40;;;3.07;;
73575;SDS011;61859;49.204;8.140;2023-11-22T06:14:48;4.53;;;3.40;;
73575;SDS011;61859;49.204;8.140;2023-11-22T06:17:13;3.27;;;2.80;;
73575;SDS011;61859;49.204;8.140;2023-11-22T06:19:39;5.23;;;3.57;;
73575;SDS011;61859;49.204;8.140;2023-11-22T06:22:06;5.30;;;3.73;;
73575;SDS011;61859;49.204;8.140;2023-11-22T06:24:32;4.20;;;3.10;;
73575;SDS011;61859;49.204;8.140;2023-11-22T06:26:58;6.90;;;2.93;;
73575;SDS011;61859;49.204;8.140;2023-11-22T06:29:24;5.83;;;3.33;;
73575;SDS011;61859;49.204;8.140;2023-11-22T06:31:49;5.23;;;3.87;;
73575;SDS011;61859;49.204;8.140;2023-11-22T06:34:15;5.43;;;3.20;;
73575;SDS011;61859;49.204;8.140;2023-11-22T06:36:40;5.37;;;3.63;;
73575;SDS011;61859;49.204;8.140;2023-11-22T06:39:06;5.50;;;3.00;;
73575;SDS011;61859;49.204;8.140;2023-11-22T06:41:34;6.50;;;3.80;;
73575;SDS011;61859;49.204;8.140;2023-11-22T06:43:59;5.77;;;3.80;;
73575;SDS011;61859;49.204;8.140;2023-11-22T06:46:25;5.50;;;3.53;;
73575;SDS011;61859;49.204;8.140;2023-11-22T06:48:50;5.90;;;4.33;;
73575;SDS011;61859;49.204;8.140;2023-11-22T06:51:16;5.70;;;3.87;;
73575;SDS011;61859;49.204;8.140;2023-11-22T06:53:43;5.10;;;3.63;;
73575;SDS011;61859;49.204;8.140;2023-11-22T06:56:09;4.37;;;3.07;;
73575;SDS011;61859;49.204;8.140;2023-11-22T06:58:36;7.03;;;3.70;;
73575;SDS011;61859;49.204;8.140;2023-11-22T07:01:01;4.87;;;3.40;;
73575;SDS011;61859;49.204;8.140;2023-11-22T07:03:27;5.93;;;3.97;;
73575;SDS011;61859;49.204;8.140;2023-11-22T07:05:52;8.70;;;4.07;;
73575;SDS011;61859;49.204;8.140;2023-11-22T07:08:18;4.93;;;3.60;;
73575;SDS011;61859;49.204;8.140;2023-11-22T07:10:44;7.37;;;3.73;;
73575;SDS011;61859;49.204;8.140;2023-11-22T07:13:10;6.50;;;4.20;;
73575;SDS011;61859;49.204;8.140;2023-11-22T07:15:37;5.17;;;3.90;;
73575;SDS011;61859;49.204;8.140;2023-11-22T07:18:03;4.10;;;3.70;;
73575;SDS011;61859;49.204;8.140;2023-11-22T07:20:30;4.50;;;3.50;;
73575;SDS011;61859;49.204;8.140;2023-11-22T07:22:56;5.53;;;3.77;;
73575;SDS011;61859;49.204;8.140;2023-11-22T07:25:22;4.23;;;3.40;;
73575;SDS011;61859;49.204;8.140;2023-11-22T07:27:50;10.97;;;4.03;;
73575;SDS011;61859;49.204;8.140;2023-11-22T07:30:16;5.33;;;3.73;;
73575;SDS011;61859;49.204;8.140;2023-11-22T07:32:45;4.77;;;3.40;;
73575;SDS011;61859;49.204;8.140;2023-11-22T07:35:10;5.07;;;3.37;;
73575;SDS011;61859;49.204;8.140;2023-11-22T07:37:37;4.13;;;3.37;;
73575;SDS011;61859;49.204;8.140;2023-11-22T07:40:07;6.27;;;3.47;;
73575;SDS011;61859;49.204;8.140;2023-11-22T07:42:35;7.57;;;3.97;;
73575;SDS011;61859;49.204;8.140;2023-11-22T07:45:01;4.10;;;3.03;;
73575;SDS011;61859;49.204;8.140;2023-11-22T07:47:27;3.73;;;3.43;;
73575;SDS011;61859;49.204;8.140;2023-11-22T07:49:53;4.93;;;3.67;;
73575;SDS011;61859;49.204;8.140;2023-11-22T07:52:20;4.37;;;3.40;;
73575;SDS011;61859;49.204;8.140;2023-11-22T07:54:55;4.03;;;3.13;;
73575;SDS011;61859;49.204;8.140;2023-11-22T07:57:21;4.37;;;3.23;;
73575;SDS011;61859;49.204;8.140;2023-11-22T07:59:48;3.77;;;3.03;;
73575;SDS011;61859;49.204;8.140;2023-11-22T08:02:14;5.13;;;3.27;;
73575;SDS011;61859;49.204;8.140;2023-11-22T08:04:43;4.83;;;3.03;;
73575;SDS011;61859;49.204;8.140;2023-11-22T08:07:10;3.20;;;2.90;;
73575;SDS011;61859;49.204;8.140;2023-11-22T08:09:38;5.07;;;2.30;;
73575;SDS011;61859;49.204;8.140;2023-11-22T08:12:03;4.53;;;2.73;;
73575;SDS011;61859;49.204;8.140;2023-11-22T08:14:29;2.97;;;2.30;;
73575;SDS011;61859;49.204;8.140;2023-11-22T08:16:55;3.70;;;2.47;;
73575;SDS011;61859;49.204;8.140;2023-11-22T08:19:21;3.50;;;2.37;;
73575;SDS011;61859;49.204;8.140;2023-11-22T08:21:48;2.63;;;2.20;;
73575;SDS011;61859;49.204;8.140;2023-11-22T08:24:14;3.50;;;2.67;;
73575;SDS011;61859;49.204;8.140;2023-11-22T08:26:39;3.87;;;2.80;;
73575;SDS011;61859;49.204;8.140;2023-11-22T08:29:05;3.37;;;2.27;;
73575;SDS011;61859;49.204;8.140;2023-11-22T08:31:32;3.43;;;2.40;;
73575;SDS011;61859;49.204;8.140;2023-11-22T08:33:59;2.60;;;2.20;;
73575;SDS011;61859;49.204;8.140;2023-11-22T08:36:25;2.97;;;2.30;;
73575;SDS011;61859;49.204;8.140;2023-11-22T08:38:53;3.70;;;2.80;;
73575;SDS011;61859;49.204;8.140;2023-11-22T08:41:20;7.70;;;2.40;;
73575;SDS011;61859;49.204;8.140;2023-11-22T08:43:46;3.70;;;2.57;;
73575;SDS011;61859;49.204;8.140;2023-11-22T08:46:13;4.07;;;2.30;;
73575;SDS011;61859;49.204;8.140;2023-11-22T08:48:39;6.87;;;3.63;;
73575;SDS011;61859;49.204;8.140;2023-11-22T08:51:05;3.97;;;3.00;;
73575;SDS011;61859;49.204;8.140;2023-11-22T08:53:32;3.30;;;2.70;;
73575;SDS011;61859;49.204;8.140;2023-11-22T08:55:58;3.20;;;2.80;;
73575;SDS011;61859;49.204;8.140;2023-11-22T08:58:24;3.03;;;2.10;;
73575;SDS011;61859;49.204;8.140;2023-11-22T09:00:49;5.97;;;2.70;;
73575;SDS011;61859;49.204;8.140;2023-11-22T09:03:15;6.43;;;4.30;;
73575;SDS011;61859;49.204;8.140;2023-11-22T09:05:42;3.43;;;2.73;;
73575;SDS011;61859;49.204;8.140;2023-11-22T09:08:08;7.60;;;2.50;;
73575;SDS011;61859;49.204;8.140;2023-11-22T09:10:41;3.43;;;3.00;;
73575;SDS011;61859;49.204;8.140;2023-11-22T09:13:07;3.87;;;2.67;;
73575;SDS011;61859;49.204;8.140;2023-11-22T09:15:33;2.53;;;2.03;;
73575;SDS011;61859;49.204;8.140;2023-11-22T09:18:00;3.03;;;2.40;;
73575;SDS011;61859;49.204;8.140;2023-11-22T09:20:26;4.10;;;2.63;;
73575;SDS011;61859;49.204;8.140;2023-11-22T09:22:52;3.57;;;2.77;;
73575;SDS011;61859;49.204;8.140;2023-11-22T09:25:20;3.23;;;2.50;;
73575;SDS011;61859;49.204;8.140;2023-11-22T09:27:48;3.07;;;2.00;;
73575;SDS011;61859;49.204;8.140;2023-11-22T09:30:16;4.33;;;2.07;;
73575;SDS011;61859;49.204;8.140;2023-11-22T09:35:41;3.23;;;2.17;;
73575;SDS011;61859;49.204;8.140;2023-11-22T09:38:11;2.93;;;2.30;;
73575;SDS011;61859;49.204;8.140;2023-11-22T09:40:44;2.53;;;2.20;;
73575;SDS011;61859;49.204;8.140;2023-11-22T09:43:10;2.27;;;2.07;;
73575;SDS011;61859;49.204;8.140;2023-11-22T09:45:37;4.87;;;3.17;;
73575;SDS011;61859;49.204;8.140;2023-11-22T09:48:04;3.47;;;2.27;;
73575;SDS011;61859;49.204;8.140;2023-11-22T09:50:40;4.80;;;3.00;;
73575;SDS011;61859;49.204;8.140;2023-11-22T09:53:19;4.50;;;3.60;;
73575;SDS011;61859;49.204;8.140;2023-11-22T09:55:55;4.63;;;3.93;;
73575;SDS011;61859;49.204;8.140;2023-11-22T09:58:22;9.40;;;8.50;;
73575;SDS011;61859;49.204;8.140;2023-11-22T10:00:49;5.60;;;5.00;;
73575;SDS011;61859;49.204;8.140;2023-11-22T10:03:15;5.97;;;4.17;;
73575;SDS011;61859;49.204;8.140;2023-11-22T10:05:43;4.13;;;2.90;;
73575;SDS011;61859;49.204;8.140;2023-11-22T10:08:09;2.60;;;2.33;;
73575;SDS011;61859;49.204;8.140;2023-11-22T10:10:35;3.90;;;2.20;;
73575;SDS011;61859;49.204;8.140;2023-11-22T10:13:01;3.03;;;2.73;;
73575;SDS011;61859;49.204;8.140;2023-11-22T10:15:28;2.97;;;2.00;;
73575;SDS011;61859;49.204;8.140;2023-11-22T10:17:55;3.70;;;2.23;;
73575;SDS011;61859;49.204;8.140;2023-11-22T10:20:23;2.23;;;2.03;;
73575;SDS011;61859;49.204;8.140;2023-11-22T10:23:01;3.67;;;2.13;;
73575;SDS011;61859;49.204;8.140;2023-11-22T10:25:27;2.57;;;2.23;;
73575;SDS011;61859;49.204;8.140;2023-11-22T10:27:54;3.13;;;2.20;;
73575;SDS011;61859;49.204;8.140;2023-11-22T10:30:20;3.87;;;2.40;;
73575;SDS011;61859;49.204;8.140;2023-11-22T10:32:45;2.80;;;2.50;;
73575;SDS011;61859;49.204;8.140;2023-11-22T10:35:11;2.63;;;2.23;;
73575;SDS011;61859;49.204;8.140;2023-11-22T10:37:41;2.70;;;2.33;;
73575;SDS011;61859;49.204;8.140;2023-11-22T10:40:09;3.10;;;2.20;;
73575;SDS011;61859;49.204;8.140;2023-11-22T10:42:36;3.30;;;2.03;;
73575;SDS011;61859;49.204;8.140;2023-11-22T10:45:04;2.33;;;1.97;;
73575;SDS011;61859;49.204;8.140;2023-11-22T10:47:32;2.97;;;2.00;;
73575;SDS011;61859;49.204;8.140;2023-11-22T10:50:03;1.80;;;1.50;;
73575;SDS011;61859;49.204;8.140;2023-11-22T10:52:30;2.70;;;1.80;;
73575;SDS011;61859;49.204;8.140;2023-11-22T10:54:59;3.10;;;1.73;;
73575;SDS011;61859;49.204;8.140;2023-11-22T10:57:37;3.00;;;2.00;;
73575;SDS011;61859;49.204;8.140;2023-11-22T11:00:16;3.43;;;2.30;;
73575;SDS011;61859;49.204;8.140;2023-11-22T11:02:47;1.93;;;1.83;;
73575;SDS011;61859;49.204;8.140;2023-11-22T11:05:21;3.10;;;2.00;;
73575;SDS011;61859;49.204;8.140;2023-11-22T11:07:54;2.70;;;1.87;;
73575;SDS011;61859;49.204;8.140;2023-11-22T11:10:34;2.37;;;1.87;;
73575;SDS011;61859;49.204;8.140;2023-11-22T11:13:00;1.87;;;1.57;;
73575;SDS011;61859;49.204;8.140;2023-11-22T11:15:26;2.67;;;1.80;;
73575;SDS011;61859;49.204;8.140;2023-11-22T11:17:53;2.07;;;1.87;;
73575;SDS011;61859;49.204;8.140;2023-11-22T11:20:22;1.80;;;1.70;;
73575;SDS011;61859;49.204;8.140;2023-11-22T11:22:48;1.90;;;1.70;;
73575;SDS011;61859;49.204;8.140;2023-11-22T11:25:15;3.07;;;1.97;;
73575;SDS011;61859;49.204;8.140;2023-11-22T11:27:44;1.93;;;1.70;;
73575;SDS011;61859;49.204;8.140;2023-11-22T11:33:08;1.90;;;1.60;;
73575;SDS011;61859;49.204;8.140;2023-11-22T11:35:52;2.40;;;2.00;;
73575;SDS011;61859;49.204;8.140;2023-11-22T11:38:21;2.23;;;1.70;;
73575;SDS011;61859;49.204;8.140;2023-11-22T11:40:55;1.77;;;1.63;;
73575;SDS011;61859;49.204;8.140;2023-11-22T11:43:46;2.40;;;1.63;;
73575;SDS011;61859;49.204;8.140;2023-11-22T11:46:14;2.47;;;2.10;;
73575;SDS011;61859;49.204;8.140;2023-11-22T11:51:16;2.03;;;1.80;;
73575;SDS011;61859;49.204;8.140;2023-11-22T11:53:44;3.67;;;2.17;;
73575;SDS011;61859;49.204;8.140;2023-11-22T11:56:10;3.27;;;2.17;;
73575;SDS011;61859;49.204;8.140;2023-11-22T11:58:37;2.23;;;1.83;;
73575;SDS011;61859;49.204;8.140;2023-11-22T12:01:03;2.17;;;1.73;;
73575;SDS011;61859;49.204;8.140;2023-11-22T12:03:29;2.70;;;2.00;;
73575;SDS011;61859;49.204;8.140;2023-11-22T12:05:55;2.77;;;2.00;;
73575;SDS011;61859;49.204;8.140;2023-11-22T12:08:21;3.10;;;2.20;;
73575;SDS011;61859;49.204;8.140;2023-11-22T12:10:47;2.40;;;2.00;;
73575;SDS011;61859;49.204;8.140;2023-11-22T12:13:19;2.10;;;1.90;;
73575;SDS011;61859;49.204;8.140;2023-11-22T12:15:46;2.97;;;1.80;;
73575;SDS011;61859;49.204;8.140;2023-11-22T12:18:12;3.50;;;2.50;;
73575;SDS011;61859;49.204;8.140;2023-11-22T12:20:38;2.83;;;2.30;;
73575;SDS011;61859;49.204;8.140;2023-11-22T12:23:04;2.07;;;1.67;;
73575;SDS011;61859;49.204;8.140;2023-11-22T12:25:30;4.23;;;3.13;;
73575;SDS011;61859;49.204;8.140;2023-11-22T12:27:56;8.40;;;6.10;;
73575;SDS011;61859;49.204;8.140;2023-11-22T12:30:35;5.47;;;3.93;;
73575;SDS011;61859;49.204;8.140;2023-11-22T12:33:04;3.13;;;2.40;;
73575;SDS011;61859;49.204;8.140;2023-11-22T12:35:30;3.23;;;2.80;;
73575;SDS011;61859;49.204;8.140;2023-11-22T12:37:58;4.07;;;3.67;;
73575;SDS011;61859;49.204;8.140;2023-11-22T12:40:29;2.97;;;2.30;;
73575;SDS011;61859;49.204;8.140;2023-11-22T12:42:58;2.67;;;2.20;;
73575;SDS011;61859;49.204;8.140;2023-11-22T12:45:25;3.07;;;1.97;;
73575;SDS011;61859;49.204;8.140;2023-11-22T12:47:53;3.20;;;2.90;;
73575;SDS011;61859;49.204;8.140;2023-11-22T12:50:29;3.33;;;2.27;;
73575;SDS011;61859;49.204;8.140;2023-11-22T12:52:59;4.37;;;2.70;;
73575;SDS011;61859;49.204;8.140;2023-11-22T12:55:32;3.03;;;2.40;;
73575;SDS011;61859;49.204;8.140;2023-11-22T12:57:58;2.83;;;2.20;;
73575;SDS011;61859;49.204;8.140;2023-11-22T13:00:28;2.67;;;1.90;;
73575;SDS011;61859;49.204;8.140;2023-11-22T13:02:58;2.67;;;2.33;;
73575;SDS011;61859;49.204;8.140;2023-11-22T13:05:24;2.73;;;2.30;;
73575;SDS011;61859;49.204;8.140;2023-11-22T13:07:50;4.37;;;3.53;;
73575;SDS011;61859;49.204;8.140;2023-11-22T13:10:16;2.10;;;1.90;;
73575;SDS011;61859;49.204;8.140;2023-11-22T13:12:45;4.30;;;3.27;;
73575;SDS011;61859;49.204;8.140;2023-11-22T13:15:11;2.47;;;2.17;;
73575;SDS011;61859;49.204;8.140;2023-11-22T13:17:38;2.70;;;2.03;;
73575;SDS011;61859;49.204;8.140;2023-11-22T13:20:06;1.80;;;1.70;;
73575;SDS011;61859;49.204;8.140;2023-11-22T13:22:39;2.37;;;1.80;;
73575;SDS011;61859;49.204;8.140;2023-11-22T13:25:06;2.23;;;1.70;;
73575;SDS011;61859;49.204;8.140;2023-11-22T13:27:47;2.20;;;1.93;;
73575;SDS011;61859;49.204;8.140;2023-11-22T13:30:13;4.97;;;2.00;;
73575;SDS011;61859;49.204;8.140;2023-11-22T13:32:45;2.93;;;2.23;;
73575;SDS011;61859;49.204;8.140;2023-11-22T13:35:11;2.30;;;2.10;;
73575;SDS011;61859;49.204;8.140;2023-11-22T13:37:49;2.30;;;1.87;;
73575;SDS011;61859;49.204;8.140;2023-11-22T13:40:15;2.80;;;2.13;;
73575;SDS011;61859;49.204;8.140;2023-11-22T13:42:46;2.90;;;2.17;;
73575;SDS011;61859;49.204;8.140;2023-11-22T13:45:13;3.00;;;1.90;;
73575;SDS011;61859;49.204;8.140;2023-11-22T13:47:53;2.60;;;1.80;;
73575;SDS011;61859;49.204;8.140;2023-11-22T13:50:25;1.90;;;1.70;;
73575;SDS011;61859;49.204;8.140;2023-11-22T13:52:54;2.10;;;1.90;;
73575;SDS011;61859;49.204;8.140;2023-11-22T13:55:21;2.40;;;1.90;;
73575;SDS011;61859;49.204;8.140;2023-11-22T13:57:50;2.73;;;2.03;;
73575;SDS011;61859;49.204;8.140;2023-11-22T14:00:17;2.53;;;2.30;;
73575;SDS011;61859;49.204;8.140;2023-11-22T14:02:54;2.57;;;1.90;;
73575;SDS011;61859;49.204;8.140;2023-11-22T14:05:30;2.60;;;2.03;;
73575;SDS011;61859;49.204;8.140;2023-11-22T14:07:56;3.17;;;2.37;;
73575;SDS011;61859;49.204;8.140;2023-11-22T14:10:22;3.73;;;1.90;;
73575;SDS011;61859;49.204;8.140;2023-11-22T14:12:48;3.03;;;1.90;;
73575;SDS011;61859;49.204;8.140;2023-11-22T14:15:14;2.43;;;2.07;;
73575;SDS011;61859;49.204;8.140;2023-11-22T14:17:40;3.03;;;2.00;;
73575;SDS011;61859;49.204;8.140;2023-11-22T14:20:06;3.30;;;2.40;;
73575;SDS011;61859;49.204;8.140;2023-11-22T14:22:34;2.40;;;2.00;;
73575;SDS011;61859;49.204;8.140;2023-11-22T14:25:04;2.90;;;2.00;;
73575;SDS011;61859;49.204;8.140;2023-11-22T14:27:36;3.40;;;2.10;;
73575;SDS011;61859;49.204;8.140;2023-11-22T14:30:03;2.50;;;2.10;;
73575;SDS011;61859;49.204;8.140;2023-11-22T14:32:32;2.97;;;2.20;;
73575;SDS011;61859;49.204;8.140;2023-11-22T14:35:04;2.57;;;1.97;;
73575;SDS011;61859;49.204;8.140;2023-11-22T14:37:30;2.83;;;1.90;;
73575;SDS011;61859;49.204;8.140;2023-11-22T14:40:00;2.83;;;2.33;;
73575;SDS011;61859;49.204;8.140;2023-11-22T14:42:25;2.97;;;2.27;;
73575;SDS011;61859;49.204;8.140;2023-11-22T14:44:52;3.33;;;2.07;;
73575;SDS011;61859;49.204;8.140;2023-11-22T14:47:18;3.27;;;2.47;;
73575;SDS011;61859;49.204;8.140;2023-11-22T14:49:49;2.00;;;1.90;;
73575;SDS011;61859;49.204;8.140;2023-11-22T14:52:15;3.10;;;2.20;;
73575;SDS011;61859;49.204;8.140;2023-11-22T14:54:48;3.53;;;2.33;;
73575;SDS011;61859;49.204;8.140;2023-11-22T14:57:14;4.77;;;2.50;;